Tannersville, Virginia
Current Conditions -  °F | °C
As of 11:35 PM on Thursday 20 Nov 2014 (Local Time) from KJFZ Reporting Station
Clear Clear  
Wind Chill: -4°   Ceiling: Unl
Heat Index:   Visibility: 10mi
Dew Point: -9°   Wind: 7mph
Humidity: 51%   Direction: 300°WNW
Pressure: 30.15"   Gusts: NA
Location:  36.98°N, 81.63°W
Report Text: KJFZ 210435Z AUTO 30006KT 10SM CLR 00/M09 A3015 RMK AO2 T00001090
Loading
Personal Weather Stations






























Interactive Weather Map New forecast layout! Learn more

10-Day Weather Forecast

Advertisements
Track Severe Weather on mobile